createdAt,value
2019-06-26T00:00:09.885Z,83.70
2019-06-26T00:02:38.303Z,84.30
2019-06-26T00:05:07.783Z,84.70
2019-06-26T00:07:36.461Z,84.80
2019-06-26T00:10:06.501Z,84.90
2019-06-26T00:12:35.058Z,84.70
2019-06-26T00:15:05.274Z,84.80
2019-06-26T00:20:01.788Z,84.50
2019-06-26T00:22:30.280Z,84.30
2019-06-26T00:24:58.853Z,84.30
2019-06-26T00:27:27.373Z,84.20
2019-06-26T00:29:55.776Z,84.10
2019-06-26T00:34:52.560Z,83.40
2019-06-26T00:37:20.960Z,83.20
2019-06-26T00:39:49.372Z,83.20
2019-06-26T00:42:17.822Z,83.20
2019-06-26T00:44:46.213Z,83.10
2019-06-26T00:47:14.617Z,83.10
2019-06-26T00:49:43.026Z,83.20
2019-06-26T00:57:07.581Z,84.00
2019-06-26T00:59:36.053Z,84.30
2019-06-26T01:02:04.593Z,84.20
2019-06-26T01:04:34.644Z,84.60
2019-06-26T01:07:03.045Z,84.60
2019-06-26T01:09:31.549Z,84.30
2019-06-26T01:11:59.954Z,84.40
2019-06-26T01:14:28.370Z,84.20
2019-06-26T01:16:56.765Z,84.10
2019-06-26T01:19:25.210Z,84.00
2019-06-26T01:21:53.613Z,83.80
2019-06-26T01:24:34.558Z,84.00
2019-06-26T01:27:02.993Z,84.40
2019-06-26T01:29:32.706Z,84.40
2019-06-26T01:32:01.362Z,84.40
2019-06-26T01:34:29.942Z,84.60
2019-06-26T01:36:58.344Z,84.70
2019-06-26T01:41:54.989Z,84.70
2019-06-26T01:44:23.397Z,84.20
2019-06-26T01:46:51.797Z,84.30
2019-06-26T01:49:20.216Z,84.20
2019-06-26T01:51:48.612Z,84.20
2019-06-26T01:54:17.109Z,84.10
2019-06-26T01:59:13.594Z,84.20
2019-06-26T02:04:10.187Z,84.10
2019-06-26T02:06:38.585Z,84.40
2019-06-26T02:09:07.049Z,84.20
2019-06-26T02:11:35.473Z,84.20
2019-06-26T02:14:04.153Z,84.30
2019-06-26T02:16:32.557Z,84.40
2019-06-26T02:21:30.771Z,84.40
2019-06-26T02:26:27.249Z,84.40
2019-06-26T02:28:55.659Z,84.30
2019-06-26T02:31:24.100Z,84.40
2019-06-26T02:33:52.642Z,84.30
2019-06-26T02:36:21.196Z,84.40
2019-06-26T02:38:49.607Z,84.50
2019-06-26T02:41:18.087Z,84.70
2019-06-26T02:43:46.490Z,84.60
2019-06-26T02:46:14.897Z,84.50
2019-06-26T02:48:43.298Z,84.50
2019-06-26T02:51:11.709Z,84.50
2019-06-26T02:53:40.126Z,84.50
2019-06-26T02:56:08.522Z,84.40
2019-06-26T02:58:36.922Z,84.30
2019-06-26T03:01:05.346Z,84.20
2019-06-26T03:04:04.342Z,83.70
2019-06-26T03:06:32.777Z,83.20
2019-06-26T03:09:01.174Z,83.00
2019-06-26T03:11:29.584Z,82.90
2019-06-26T03:13:57.974Z,83.10
2019-06-26T03:16:26.386Z,83.30
2019-06-26T03:18:54.780Z,83.30
2019-06-26T03:23:51.312Z,83.10
2019-06-26T03:26:19.747Z,83.40
2019-06-26T03:28:48.165Z,83.40
2019-06-26T03:31:16.578Z,83.20
2019-06-26T03:36:13.088Z,83.30
2019-06-26T03:38:41.487Z,83.20
2019-06-26T03:43:57.304Z,82.70
2019-06-26T03:46:25.717Z,82.60
2019-06-26T03:48:54.125Z,82.60
2019-06-26T03:51:22.556Z,82.70
2019-06-26T03:53:50.985Z,82.70
2019-06-26T03:56:19.386Z,82.70
2019-06-26T03:58:47.894Z,82.80
2019-06-26T04:01:16.305Z,83.10
2019-06-26T04:03:44.776Z,83.50
2019-06-26T04:06:13.314Z,83.50
2019-06-26T04:08:41.897Z,83.50
2019-06-26T04:11:10.302Z,83.40
2019-06-26T04:13:38.768Z,83.40
2019-06-26T04:16:07.177Z,83.50
2019-06-26T04:18:35.664Z,83.40
2019-06-26T04:21:23.425Z,83.40
2019-06-26T04:26:19.970Z,83.10
2019-06-26T04:28:48.369Z,83.10
2019-06-26T04:31:16.781Z,83.20
2019-06-26T04:33:45.181Z,83.40
2019-06-26T04:38:41.661Z,83.10
2019-06-26T04:41:10.488Z,83.00
2019-06-26T04:43:38.872Z,82.60
2019-06-26T04:46:07.277Z,82.40
2019-06-26T04:48:35.788Z,82.40
2019-06-26T04:51:04.634Z,82.60
2019-06-26T04:53:33.120Z,82.60
2019-06-26T04:56:01.519Z,82.60
2019-06-26T04:58:29.974Z,82.60
2019-06-26T05:00:58.384Z,82.90
2019-06-26T05:03:26.795Z,82.60
2019-06-26T05:05:55.193Z,82.10
2019-06-26T05:10:51.669Z,81.60
2019-06-26T05:13:20.141Z,81.30
2019-06-26T05:18:16.637Z,81.20
2019-06-26T05:20:45.084Z,82.40
2019-06-26T05:23:13.504Z,83.70
2019-06-26T05:25:42.445Z,83.50
2019-06-26T05:28:10.867Z,83.30
2019-06-26T05:33:07.412Z,83.10
2019-06-26T05:35:35.807Z,82.70
2019-06-26T05:38:04.308Z,82.80
2019-06-26T05:43:00.824Z,81.90
2019-06-26T05:50:25.496Z,80.40
2019-06-26T05:52:53.904Z,80.10
2019-06-26T05:55:22.322Z,79.80
2019-06-26T05:57:50.732Z,79.50
2019-06-26T06:00:20.998Z,79.00
2019-06-26T06:02:49.433Z,78.40
2019-06-26T06:05:18.127Z,78.00
2019-06-26T06:07:46.516Z,77.40
2019-06-26T06:10:16.068Z,77.20
2019-06-26T06:12:44.535Z,76.60
2019-06-26T06:15:14.694Z,76.30
2019-06-26T06:17:43.093Z,75.10
2019-06-26T06:20:13.671Z,74.50
2019-06-26T06:22:42.124Z,73.40
2019-06-26T06:25:11.165Z,72.90
2019-06-26T06:27:39.563Z,71.50
2019-06-26T06:30:08.416Z,71.00
2019-06-26T06:32:36.818Z,70.00
2019-06-26T06:35:06.964Z,68.50
2019-06-26T06:37:35.365Z,67.80
2019-06-26T06:40:08.522Z,68.70
2019-06-26T06:42:36.929Z,68.00
2019-06-26T06:45:07.893Z,68.30
2019-06-26T06:47:36.283Z,66.90
2019-06-26T06:50:06.864Z,66.90
2019-06-26T06:52:35.364Z,65.60
2019-06-26T06:55:06.253Z,65.50
2019-06-26T06:57:34.656Z,64.50
2019-06-26T07:00:03.133Z,64.40
2019-06-26T07:02:31.557Z,64.50
2019-06-26T07:07:28.032Z,62.80
2019-06-26T07:09:56.487Z,62.70
2019-06-26T07:12:24.884Z,62.40
2019-06-26T07:14:53.305Z,61.10
2019-06-26T07:17:21.704Z,62.50
2019-06-26T07:19:50.145Z,62.40
2019-06-26T07:22:18.579Z,61.10
2019-06-26T07:24:46.987Z,60.80
2019-06-26T07:27:15.404Z,61.20
2019-06-26T07:29:43.805Z,60.30
2019-06-26T07:32:12.210Z,60.90
2019-06-26T07:37:08.802Z,61.00
2019-06-26T07:39:37.197Z,61.10
2019-06-26T07:42:05.772Z,60.80
2019-06-26T07:44:34.225Z,60.60
2019-06-26T07:47:02.660Z,60.00
2019-06-26T07:49:31.060Z,59.10
2019-06-26T07:51:59.473Z,59.60
2019-06-26T07:54:27.873Z,59.20
2019-06-26T07:56:56.294Z,60.00
2019-06-26T07:59:24.777Z,60.00
2019-06-26T08:04:21.242Z,59.20
2019-06-26T08:06:49.648Z,59.30
2019-06-26T08:09:18.116Z,59.90
2019-06-26T08:11:46.542Z,58.70
2019-06-26T08:14:14.973Z,59.00
2019-06-26T08:16:43.504Z,59.20
2019-06-26T08:19:11.908Z,58.90
2019-06-26T08:21:40.316Z,58.40
2019-06-26T08:24:08.716Z,58.70
2019-06-26T08:26:37.155Z,57.90
2019-06-26T08:29:05.627Z,57.40
2019-06-26T08:31:34.028Z,57.80
2019-06-26T08:34:02.433Z,58.20
2019-06-26T08:38:59.101Z,57.70
2019-06-26T08:41:27.524Z,57.20
2019-06-26T08:46:24.097Z,56.70
2019-06-26T08:48:52.483Z,56.40
2019-06-26T08:51:22.145Z,57.00
2019-06-26T08:53:50.702Z,56.10
2019-06-26T08:56:19.504Z,56.10
2019-06-26T08:58:47.920Z,56.20
2019-06-26T09:01:16.313Z,56.90
2019-06-26T09:03:44.736Z,56.50
2019-06-26T09:06:13.212Z,56.60
2019-06-26T09:08:41.614Z,57.00
2019-06-26T09:11:10.041Z,56.90
2019-06-26T09:16:06.577Z,57.00
2019-06-26T09:18:36.269Z,56.50
2019-06-26T09:23:33.081Z,56.40
2019-06-26T09:26:01.501Z,55.80
2019-06-26T09:30:57.974Z,55.20
2019-06-26T09:33:26.398Z,53.50
2019-06-26T09:40:51.311Z,55.10
2019-06-26T09:43:19.985Z,55.80
2019-06-26T09:46:07.736Z,54.40
2019-06-26T09:48:51.586Z,54.40
2019-06-26T09:51:25.612Z,53.80
2019-06-26T09:53:54.024Z,54.20
2019-06-26T09:56:22.496Z,54.00
2019-06-26T09:58:50.901Z,54.00
2019-06-26T10:01:19.302Z,52.60
2019-06-26T10:03:47.709Z,51.80
2019-06-26T10:08:44.244Z,52.40
2019-06-26T10:11:13.108Z,52.70
2019-06-26T10:16:09.602Z,51.80
2019-06-26T10:18:38.033Z,50.10
2019-06-26T10:21:25.839Z,50.80
2019-06-26T10:23:54.240Z,50.60
2019-06-26T10:26:22.642Z,52.50
2019-06-26T10:31:19.148Z,51.90
2019-06-26T10:36:15.816Z,52.10
2019-06-26T10:38:44.224Z,51.80
2019-06-26T10:41:12.627Z,51.60
2019-06-26T10:43:41.040Z,53.10
2019-06-26T10:46:09.477Z,52.30
2019-06-26T10:48:37.937Z,52.40
2019-06-26T10:51:06.321Z,53.20
2019-06-26T10:53:34.708Z,52.70
2019-06-26T10:58:31.269Z,54.50
2019-06-26T11:00:59.689Z,53.40
2019-06-26T11:03:28.085Z,55.00
2019-06-26T11:05:56.494Z,55.50
2019-06-26T11:08:24.893Z,56.10
2019-06-26T11:10:53.295Z,57.30
2019-06-26T11:13:21.696Z,56.50
2019-06-26T11:18:18.415Z,57.40
2019-06-26T11:20:46.824Z,56.90
2019-06-26T11:23:34.560Z,56.90
2019-06-26T11:26:02.971Z,58.20
2019-06-26T11:28:31.370Z,57.40
2019-06-26T11:30:59.820Z,57.70
2019-06-26T11:33:28.316Z,57.30
2019-06-26T11:35:56.949Z,56.90
2019-06-26T11:38:25.348Z,57.20
2019-06-26T11:40:53.767Z,56.40
2019-06-26T11:43:22.170Z,56.10
2019-06-26T11:45:50.588Z,56.70
2019-06-26T11:48:18.988Z,56.80
2019-06-26T11:50:47.417Z,56.60
2019-06-26T11:55:44.138Z,55.90
2019-06-26T11:58:12.529Z,56.40
2019-06-26T12:03:13.211Z,55.80
2019-06-26T12:05:40.643Z,54.70
2019-06-26T12:08:09.088Z,55.60
2019-06-26T12:10:37.668Z,55.80
2019-06-26T12:13:06.068Z,54.70
2019-06-26T12:15:34.473Z,54.50
2019-06-26T12:18:02.879Z,54.90
2019-06-26T12:20:31.289Z,54.50
2019-06-26T12:22:59.729Z,54.70
2019-06-26T12:25:28.188Z,55.00
2019-06-26T12:27:56.585Z,53.90
2019-06-26T12:30:25.647Z,53.80
2019-06-26T12:33:02.790Z,53.80
2019-06-26T12:35:24.177Z,54.50
2019-06-26T12:37:52.646Z,55.20
2019-06-26T12:40:21.129Z,55.00
2019-06-26T12:42:49.544Z,55.00
2019-06-26T12:45:18.982Z,54.90
2019-06-26T12:47:47.404Z,55.50
2019-06-26T12:50:34.137Z,55.60
2019-06-26T12:52:49.024Z,55.60
2019-06-26T12:55:17.484Z,56.50
2019-06-26T12:57:45.905Z,57.20
2019-06-26T13:00:16.052Z,57.40
2019-06-26T13:02:44.468Z,57.00
2019-06-26T13:05:14.197Z,57.60
2019-06-26T13:10:11.652Z,58.10
2019-06-26T13:12:40.066Z,58.20
2019-06-26T13:15:10.004Z,57.70
2019-06-26T13:20:10.677Z,56.20
2019-06-26T13:22:39.283Z,56.50
2019-06-26T13:25:09.137Z,55.80
2019-06-26T13:27:37.553Z,56.00
2019-06-26T13:30:07.786Z,56.10
2019-06-26T13:32:36.199Z,56.10
2019-06-26T13:35:05.940Z,55.10
2019-06-26T13:37:34.350Z,55.00
2019-06-26T13:40:02.782Z,54.90
2019-06-26T13:42:31.229Z,56.20
2019-06-26T13:44:59.628Z,55.80
2019-06-26T13:47:28.053Z,55.30
2019-06-26T13:49:56.459Z,55.60
2019-06-26T13:52:24.954Z,55.20
2019-06-26T13:54:56.353Z,55.90
2019-06-26T13:57:23.614Z,56.60
2019-06-26T13:59:52.008Z,55.10
2019-06-26T14:02:20.545Z,56.00
2019-06-26T14:04:48.953Z,56.70
2019-06-26T14:07:17.361Z,56.70
2019-06-26T14:09:45.768Z,55.70
2019-06-26T14:12:14.168Z,56.80
2019-06-26T14:14:56.874Z,56.90
2019-06-26T14:17:12.731Z,56.10
2019-06-26T14:19:41.151Z,55.70
2019-06-26T14:22:12.897Z,56.60
2019-06-26T14:24:39.686Z,56.50
2019-06-26T14:27:08.083Z,56.60
2019-06-26T14:29:36.498Z,56.50
2019-06-26T14:32:04.908Z,56.60
2019-06-26T14:34:33.328Z,56.60
2019-06-26T14:37:01.734Z,56.40
2019-06-26T14:39:30.146Z,56.60
2019-06-26T14:41:58.548Z,56.20
2019-06-26T14:44:26.956Z,56.60
2019-06-26T14:46:55.353Z,56.40
2019-06-26T14:49:23.772Z,57.00
2019-06-26T14:51:52.225Z,56.90
2019-06-26T14:54:20.684Z,56.70
2019-06-26T14:56:49.084Z,57.00
2019-06-26T14:59:17.488Z,57.50
2019-06-26T15:01:45.896Z,56.90
2019-06-26T15:06:42.386Z,57.30
2019-06-26T15:09:10.800Z,57.20
2019-06-26T15:11:39.192Z,57.70
2019-06-26T15:14:07.592Z,57.60
2019-06-26T15:16:35.992Z,57.50
2019-06-26T15:19:04.407Z,57.30
2019-06-26T15:21:32.828Z,57.50
2019-06-26T15:24:01.236Z,57.40
2019-06-26T15:26:29.736Z,57.50
2019-06-26T15:28:58.172Z,56.80
2019-06-26T15:31:26.574Z,57.40
2019-06-26T15:33:54.976Z,57.00
2019-06-26T15:36:23.377Z,56.60
2019-06-26T15:41:20.009Z,57.30
2019-06-26T15:43:48.465Z,56.90
2019-06-26T15:46:16.973Z,57.30
2019-06-26T15:48:45.441Z,56.60
2019-06-26T15:51:13.851Z,56.40
2019-06-26T15:53:42.289Z,56.80
2019-06-26T15:56:10.730Z,57.40
2019-06-26T15:58:39.131Z,56.20
2019-06-26T16:01:07.540Z,56.00
2019-06-26T16:03:35.930Z,56.40
2019-06-26T16:06:23.756Z,55.50
2019-06-26T16:08:52.166Z,55.70
2019-06-26T16:13:48.664Z,57.80
2019-06-26T16:16:17.406Z,58.20
2019-06-26T16:18:47.478Z,57.70
2019-06-26T16:21:15.953Z,57.00
2019-06-26T16:23:44.352Z,57.20
2019-06-26T16:26:12.760Z,57.50
2019-06-26T16:28:41.156Z,57.20
2019-06-26T16:31:09.565Z,57.70
2019-06-26T16:33:37.974Z,57.90
2019-06-26T16:36:06.384Z,57.90
2019-06-26T16:38:34.799Z,57.80
2019-06-26T16:41:05.077Z,58.50
2019-06-26T16:43:33.473Z,59.00
2019-06-26T16:46:01.922Z,60.00
2019-06-26T16:48:30.409Z,59.30
2019-06-26T16:50:58.812Z,58.40
2019-06-26T16:53:27.247Z,59.10
2019-06-26T16:55:55.673Z,59.40
2019-06-26T16:58:24.077Z,58.90
2019-06-26T17:00:53.256Z,59.50
2019-06-26T17:03:21.653Z,59.50
2019-06-26T17:05:50.106Z,59.50
2019-06-26T17:08:18.564Z,59.40
2019-06-26T17:10:46.987Z,59.30
2019-06-26T17:13:15.422Z,59.20
2019-06-26T17:15:43.993Z,59.00
2019-06-26T17:18:12.388Z,58.90
2019-06-26T17:20:40.806Z,59.40
2019-06-26T17:23:09.197Z,59.60
2019-06-26T17:25:37.604Z,59.90
2019-06-26T17:28:06.003Z,60.00
2019-06-26T17:30:34.480Z,60.30
2019-06-26T17:33:02.904Z,61.00
2019-06-26T17:35:31.340Z,61.40
2019-06-26T17:40:27.836Z,61.80
2019-06-26T17:43:11.370Z,61.90
2019-06-26T17:45:26.372Z,62.10
2019-06-26T17:47:54.767Z,62.60
2019-06-26T17:50:23.274Z,62.70
2019-06-26T17:52:51.668Z,63.20
2019-06-26T17:55:20.265Z,63.20
2019-06-26T17:57:48.712Z,63.40
2019-06-26T18:00:19.133Z,63.80
2019-06-26T18:05:15.703Z,64.00
2019-06-26T18:07:44.129Z,64.50
2019-06-26T18:10:12.666Z,64.70
2019-06-26T18:12:41.076Z,65.10
2019-06-26T18:15:09.748Z,64.60
2019-06-26T18:17:38.162Z,64.80
2019-06-26T18:20:07.315Z,65.10
2019-06-26T18:22:35.888Z,65.40
2019-06-26T18:25:05.924Z,65.40
2019-06-26T18:27:34.397Z,65.40
2019-06-26T18:30:03.280Z,65.90
2019-06-26T18:32:31.714Z,66.10
2019-06-26T18:35:00.135Z,66.70
2019-06-26T18:37:28.584Z,67.20
2019-06-26T18:39:56.993Z,67.10
2019-06-26T18:42:25.396Z,66.70
2019-06-26T18:44:53.796Z,67.00
2019-06-26T18:47:22.253Z,67.70
2019-06-26T18:49:50.652Z,67.80
2019-06-26T18:52:19.090Z,67.80
2019-06-26T18:54:47.480Z,68.10
2019-06-26T18:57:15.884Z,68.50
2019-06-26T18:59:44.328Z,68.50
2019-06-26T19:02:12.756Z,68.60
2019-06-26T19:04:41.262Z,68.60
2019-06-26T19:07:09.735Z,68.80
2019-06-26T19:09:38.132Z,68.90
2019-06-26T19:12:06.540Z,69.10
2019-06-26T19:14:34.972Z,69.50
2019-06-26T19:17:03.390Z,69.70
2019-06-26T19:19:31.787Z,69.90
2019-06-26T19:22:00.201Z,70.10
2019-06-26T19:26:56.713Z,70.60
2019-06-26T19:29:25.127Z,70.90
2019-06-26T19:31:53.516Z,71.10
2019-06-26T19:34:21.916Z,71.30
2019-06-26T19:36:50.827Z,71.40
2019-06-26T19:39:20.994Z,71.40
2019-06-26T19:44:17.844Z,71.70
2019-06-26T19:46:46.237Z,71.80
2019-06-26T19:49:14.710Z,71.70
2019-06-26T19:54:26.066Z,72.00
2019-06-26T19:56:41.355Z,72.30
2019-06-26T19:59:09.850Z,72.50
2019-06-26T20:01:38.267Z,72.50
2019-06-26T20:04:06.690Z,72.50
2019-06-26T20:06:35.178Z,72.60
2019-06-26T20:09:04.622Z,72.70
2019-06-26T20:11:33.045Z,72.80
2019-06-26T20:14:01.473Z,72.90
2019-06-26T20:18:57.992Z,73.20
2019-06-26T20:21:26.421Z,73.30
2019-06-26T20:23:54.827Z,73.50
2019-06-26T20:26:23.232Z,73.90
2019-06-26T20:28:51.708Z,74.10
2019-06-26T20:31:20.143Z,74.30
2019-06-26T20:33:48.562Z,74.40
2019-06-26T20:36:16.965Z,74.40
2019-06-26T20:38:45.404Z,74.50
2019-06-26T20:41:13.813Z,74.60
2019-06-26T20:43:42.257Z,74.60
2019-06-26T20:46:10.695Z,74.70
2019-06-26T20:48:39.104Z,74.70
2019-06-26T20:51:07.501Z,74.80
2019-06-26T20:53:35.941Z,74.80
2019-06-26T20:58:34.322Z,75.20
2019-06-26T21:01:02.790Z,75.20
2019-06-26T21:03:31.298Z,75.30
2019-06-26T21:05:59.837Z,75.30
2019-06-26T21:08:29.529Z,75.50
2019-06-26T21:10:58.127Z,75.60
2019-06-26T21:13:27.180Z,76.00
2019-06-26T21:15:55.587Z,76.10
2019-06-26T21:18:24.015Z,76.10
2019-06-26T21:20:52.421Z,76.10
2019-06-26T21:23:23.350Z,76.10
2019-06-26T21:25:50.948Z,76.10
2019-06-26T21:30:47.454Z,76.20
2019-06-26T21:33:15.847Z,76.50
2019-06-26T21:35:44.283Z,76.60
2019-06-26T21:38:12.681Z,76.60
2019-06-26T21:40:41.118Z,76.70
2019-06-26T21:45:37.642Z,76.60
2019-06-26T21:48:06.034Z,77.00
2019-06-26T21:50:34.469Z,77.20
2019-06-26T21:53:02.897Z,77.30
2019-06-26T21:55:34.749Z,77.50
2019-06-26T21:58:01.809Z,77.60
2019-06-26T22:00:31.973Z,77.80
2019-06-26T22:03:00.398Z,77.80
2019-06-26T22:05:28.975Z,77.60
2019-06-26T22:07:57.456Z,77.70
2019-06-26T22:10:25.854Z,78.30
2019-06-26T22:12:54.355Z,78.40
2019-06-26T22:15:22.765Z,78.20
2019-06-26T22:17:51.244Z,78.10
2019-06-26T22:20:19.738Z,78.00
2019-06-26T22:23:07.487Z,78.10
2019-06-26T22:25:49.883Z,78.10
2019-06-26T22:28:06.016Z,78.00
2019-06-26T22:30:34.436Z,78.00
2019-06-26T22:33:02.893Z,78.00
2019-06-26T22:35:34.414Z,78.20
2019-06-26T22:38:03.377Z,78.40
2019-06-26T22:40:31.833Z,78.40
2019-06-26T22:43:00.295Z,78.30
2019-06-26T22:45:28.706Z,78.00
2019-06-26T22:47:57.135Z,77.80
2019-06-26T22:50:25.570Z,78.00
2019-06-26T22:52:54.073Z,78.20
2019-06-26T22:55:22.511Z,78.50
2019-06-26T22:57:51.001Z,78.60
2019-06-26T23:00:20.176Z,78.80
2019-06-26T23:02:48.605Z,78.70
2019-06-26T23:05:17.034Z,78.50
2019-06-26T23:07:45.437Z,78.30
2019-06-26T23:10:33.275Z,78.10
2019-06-26T23:13:01.690Z,78.00
2019-06-26T23:15:32.377Z,78.00
2019-06-26T23:18:00.781Z,78.10
2019-06-26T23:20:29.217Z,78.10
2019-06-26T23:22:57.621Z,78.10
2019-06-26T23:25:26.030Z,78.00
2019-06-26T23:27:54.441Z,77.70
2019-06-26T23:30:22.874Z,77.60
2019-06-26T23:33:10.630Z,77.50
2019-06-26T23:35:39.078Z,77.40
2019-06-26T23:38:07.520Z,77.30
2019-06-26T23:40:35.965Z,77.70
2019-06-26T23:43:04.629Z,77.80
2019-06-26T23:45:33.038Z,77.80
2019-06-26T23:48:01.507Z,77.70
2019-06-26T23:50:29.910Z,77.70
2019-06-26T23:52:58.348Z,77.70
2019-06-26T23:55:26.765Z,78.20
2019-06-26T23:57:59.293Z,78.20
